createdAt,value
2022-12-23T00:00:23.089Z,9.82
2022-12-23T00:02:50.918Z,9.82
2022-12-23T00:05:18.830Z,9.81
2022-12-23T00:07:46.542Z,9.80
2022-12-23T00:10:14.462Z,9.80
2022-12-23T00:12:59.773Z,9.83
2022-12-23T00:15:28.833Z,9.80
2022-12-23T00:17:56.334Z,9.80
2022-12-23T00:20:23.913Z,9.81
2022-12-23T00:23:06.370Z,9.80
2022-12-23T00:25:44.920Z,9.77
2022-12-23T00:28:15.790Z,9.81
2022-12-23T00:30:49.386Z,9.76
2022-12-23T00:33:18.837Z,9.79
2022-12-23T00:35:47.030Z,9.79
2022-12-23T00:38:15.142Z,9.81
2022-12-23T00:41:00.574Z,9.82
2022-12-23T00:43:28.221Z,9.79
2022-12-23T00:45:57.344Z,9.82
2022-12-23T00:48:42.679Z,9.79
2022-12-23T00:51:10.383Z,9.78
2022-12-23T00:53:37.927Z,9.76
2022-12-23T00:56:05.941Z,9.76
2022-12-23T00:58:33.467Z,9.75
2022-12-23T01:01:20.297Z,9.74
2022-12-23T01:04:05.659Z,9.72
2022-12-23T01:06:33.383Z,9.70
2022-12-23T01:09:01.053Z,9.70
2022-12-23T01:11:28.602Z,9.71
2022-12-23T01:13:56.168Z,9.71
2022-12-23T01:16:25.042Z,9.68
2022-12-23T01:18:52.807Z,9.66
2022-12-23T01:21:20.425Z,9.69
2022-12-23T01:23:48.158Z,9.70
2022-12-23T01:26:15.869Z,9.65
2022-12-23T01:28:43.389Z,9.67
2022-12-23T01:31:11.880Z,9.67
2022-12-23T01:33:40.944Z,9.70
2022-12-23T01:36:09.227Z,9.70
2022-12-23T01:38:36.769Z,9.74
2022-12-23T01:41:04.744Z,9.71
2022-12-23T01:43:45.981Z,9.71
2022-12-23T01:46:13.519Z,9.74
2022-12-23T01:48:43.358Z,9.72
2022-12-23T01:51:13.681Z,9.72
2022-12-23T01:53:44.269Z,9.75
2022-12-23T01:56:14.740Z,9.74
2022-12-23T01:58:44.918Z,9.75
2022-12-23T02:01:30.380Z,9.78
2022-12-23T02:04:01.332Z,9.72
2022-12-23T02:06:53.573Z,9.73
2022-12-23T02:09:23.356Z,9.78
2022-12-23T02:12:08.111Z,9.82
2022-12-23T02:15:08.037Z,9.81
2022-12-23T02:17:43.860Z,9.84
2022-12-23T02:20:53.473Z,9.84
2022-12-23T02:23:39.568Z,9.78
2022-12-23T02:26:29.349Z,9.81
2022-12-23T02:29:12.603Z,9.85
2022-12-23T02:31:45.867Z,9.86
2022-12-23T02:34:18.429Z,9.89
2022-12-23T02:36:51.917Z,9.88
2022-12-23T02:39:21.675Z,9.90
2022-12-23T02:41:53.760Z,9.90
2022-12-23T02:44:30.391Z,9.91
2022-12-23T02:47:01.814Z,9.90
2022-12-23T02:49:33.189Z,9.90
2022-12-23T02:52:03.362Z,9.90
2022-12-23T02:54:32.831Z,9.87
2022-12-23T02:57:02.414Z,9.87
2022-12-23T02:59:32.181Z,9.86
2022-12-23T03:02:02.162Z,9.86
2022-12-23T03:04:29.813Z,9.85
2022-12-23T03:07:01.726Z,9.90
2022-12-23T03:09:39.237Z,9.86
2022-12-23T03:12:11.898Z,9.86
2022-12-23T03:14:50.785Z,9.88
2022-12-23T03:17:30.984Z,9.93
2022-12-23T03:20:05.138Z,9.88
2022-12-23T03:22:36.605Z,9.94
2022-12-23T03:25:07.279Z,9.91
2022-12-23T03:27:38.340Z,9.94
2022-12-23T03:30:08.142Z,9.97
2022-12-23T03:32:40.305Z,9.97
2022-12-23T03:35:09.257Z,10.00
2022-12-23T03:37:40.843Z,9.96
2022-12-23T03:40:11.039Z,9.95
2022-12-23T03:42:40.113Z,9.94
2022-12-23T03:45:37.560Z,9.98
2022-12-23T03:48:04.535Z,9.97
2022-12-23T03:50:33.360Z,9.99
2022-12-23T03:53:03.151Z,9.98
2022-12-23T03:55:34.473Z,9.95
2022-12-23T03:58:06.413Z,9.96
2022-12-23T04:00:36.300Z,9.96
2022-12-23T04:03:12.518Z,9.91
2022-12-23T04:05:40.941Z,9.90
2022-12-23T04:08:13.047Z,9.92
2022-12-23T04:10:40.690Z,9.89
2022-12-23T04:13:08.999Z,9.87
2022-12-23T04:15:40.186Z,9.87
2022-12-23T04:18:09.918Z,9.86
2022-12-23T04:20:37.616Z,9.85
2022-12-23T04:23:05.667Z,9.87
2022-12-23T04:25:33.245Z,9.86
2022-12-23T04:28:01.076Z,9.87
2022-12-23T04:30:33.921Z,9.90
2022-12-23T04:33:02.803Z,9.91
2022-12-23T04:35:32.074Z,9.91
2022-12-23T04:37:59.637Z,9.88
2022-12-23T04:40:27.148Z,9.86
2022-12-23T04:42:54.885Z,9.88
2022-12-23T04:45:22.662Z,9.84
2022-12-23T04:47:50.361Z,9.83
2022-12-23T04:50:18.200Z,9.83
2022-12-23T04:52:47.389Z,9.83
2022-12-23T04:55:14.920Z,9.81
2022-12-23T04:57:42.718Z,9.80
2022-12-23T05:00:11.450Z,9.81
2022-12-23T05:02:39.120Z,9.78
2022-12-23T05:05:07.290Z,9.84
2022-12-23T05:07:34.987Z,9.82
2022-12-23T05:10:04.186Z,9.82
2022-12-23T05:12:32.691Z,9.80
2022-12-23T05:15:00.212Z,9.81
2022-12-23T05:17:28.028Z,9.81
2022-12-23T05:19:55.714Z,9.77
2022-12-23T05:22:23.255Z,9.82
2022-12-23T05:24:50.813Z,9.79
2022-12-23T05:27:19.716Z,9.77
2022-12-23T05:29:47.218Z,9.78
2022-12-23T05:32:14.772Z,9.77
2022-12-23T05:34:42.329Z,9.71
2022-12-23T05:37:09.851Z,9.73
2022-12-23T05:39:37.411Z,9.74
2022-12-23T05:42:05.381Z,9.73
2022-12-23T05:44:34.910Z,9.72
2022-12-23T05:47:03.031Z,9.67
2022-12-23T05:49:30.746Z,9.65
2022-12-23T05:51:58.472Z,9.64
2022-12-23T05:54:26.205Z,9.69
2022-12-23T05:56:53.920Z,9.66
2022-12-23T05:59:21.691Z,9.66
2022-12-23T06:01:50.651Z,9.62
2022-12-23T06:04:18.388Z,9.61
2022-12-23T06:06:46.323Z,9.58
2022-12-23T06:09:14.251Z,9.61
2022-12-23T06:11:41.800Z,9.63
2022-12-23T06:14:09.520Z,9.63
2022-12-23T06:16:37.260Z,9.59
2022-12-23T06:19:06.489Z,9.59
2022-12-23T06:21:34.133Z,9.55
2022-12-23T06:24:01.797Z,9.57
2022-12-23T06:26:29.472Z,9.57
2022-12-23T06:28:57.036Z,9.57
2022-12-23T06:31:24.600Z,9.54
2022-12-23T06:33:52.226Z,9.50
2022-12-23T06:36:21.186Z,9.52
2022-12-23T06:38:48.756Z,9.48
2022-12-23T06:41:16.473Z,9.51
2022-12-23T06:43:44.168Z,9.47
2022-12-23T06:46:13.542Z,9.42
2022-12-23T06:48:41.275Z,9.37
2022-12-23T06:51:11.176Z,9.34
2022-12-23T06:53:40.180Z,9.35
2022-12-23T06:56:08.360Z,9.30
2022-12-23T06:58:35.897Z,9.29
2022-12-23T07:01:03.500Z,9.25
2022-12-23T07:03:31.184Z,9.26
2022-12-23T07:05:58.932Z,9.22
2022-12-23T07:08:26.427Z,9.30
2022-12-23T07:11:00.160Z,9.24
2022-12-23T07:13:28.455Z,9.21
2022-12-23T07:15:56.355Z,9.19
2022-12-23T07:18:24.224Z,9.15
2022-12-23T07:20:52.016Z,9.15
2022-12-23T07:23:19.721Z,9.06
2022-12-23T07:25:47.404Z,9.06
2022-12-23T07:28:16.267Z,9.09
2022-12-23T07:30:43.879Z,9.10
2022-12-23T07:33:11.589Z,9.07
2022-12-23T07:35:39.306Z,9.08
2022-12-23T07:38:07.364Z,9.08
2022-12-23T07:40:35.123Z,9.04
2022-12-23T07:43:02.815Z,9.01
2022-12-23T07:45:31.781Z,8.97
2022-12-23T07:48:02.077Z,8.94
2022-12-23T07:50:29.869Z,8.91
2022-12-23T07:52:58.173Z,8.88
2022-12-23T07:55:25.685Z,8.86
2022-12-23T07:57:53.640Z,8.83
2022-12-23T08:00:22.451Z,8.78
2022-12-23T08:02:51.719Z,8.77
2022-12-23T08:05:20.109Z,8.73
2022-12-23T08:07:50.006Z,8.79
2022-12-23T08:10:17.868Z,8.79
2022-12-23T08:12:46.343Z,8.79
2022-12-23T08:15:14.168Z,8.82
2022-12-23T08:17:41.769Z,8.85
2022-12-23T08:20:12.388Z,8.92
2022-12-23T08:22:40.140Z,8.94
2022-12-23T08:25:08.440Z,9.07
2022-12-23T08:27:36.005Z,8.93
2022-12-23T08:30:03.634Z,8.93
2022-12-23T08:32:31.207Z,8.95
2022-12-23T08:34:58.808Z,8.93
2022-12-23T08:37:27.754Z,8.92
2022-12-23T08:39:55.322Z,9.04
2022-12-23T08:42:22.916Z,8.99
2022-12-23T08:44:50.675Z,8.95
2022-12-23T08:47:18.237Z,8.95
2022-12-23T08:49:46.191Z,8.97
2022-12-23T08:52:14.091Z,9.02
2022-12-23T08:54:43.065Z,8.95
2022-12-23T08:57:10.616Z,9.07
2022-12-23T08:59:38.845Z,8.96
2022-12-23T09:02:06.661Z,9.04
2022-12-23T09:04:34.213Z,9.03
2022-12-23T09:07:01.936Z,9.06
2022-12-23T09:09:29.607Z,9.15
2022-12-23T09:11:58.683Z,9.12
2022-12-23T09:14:26.388Z,9.14
2022-12-23T09:16:53.962Z,9.14
2022-12-23T09:19:21.551Z,9.15
2022-12-23T09:21:49.083Z,9.29
2022-12-23T09:24:16.793Z,9.12
2022-12-23T09:26:44.317Z,9.20
2022-12-23T09:29:13.215Z,9.19
2022-12-23T09:31:40.968Z,9.29
2022-12-23T09:34:11.192Z,9.26
2022-12-23T09:36:38.722Z,9.27
2022-12-23T09:39:06.535Z,9.33
2022-12-23T09:41:47.641Z,9.40
2022-12-23T09:44:36.415Z,9.49
2022-12-23T09:47:06.918Z,9.55
2022-12-23T09:49:35.140Z,9.53
2022-12-23T09:52:05.239Z,9.49
2022-12-23T09:54:38.809Z,9.43
2022-12-23T09:57:16.346Z,9.50
2022-12-23T09:59:55.935Z,9.34
2022-12-23T10:02:27.356Z,9.47
2022-12-23T10:05:02.775Z,9.39
2022-12-23T10:07:35.360Z,9.43
2022-12-23T10:10:09.390Z,9.47
2022-12-23T10:12:40.642Z,9.35
2022-12-23T10:15:19.871Z,9.43
2022-12-23T10:17:47.872Z,9.46
2022-12-23T10:20:18.851Z,9.58
2022-12-23T10:22:47.100Z,9.47
2022-12-23T10:25:19.239Z,9.36
2022-12-23T10:27:46.964Z,9.45
2022-12-23T10:30:51.395Z,9.54
2022-12-23T10:33:14.530Z,9.66
2022-12-23T10:35:50.218Z,9.71
2022-12-23T10:38:29.032Z,9.82
2022-12-23T10:41:08.900Z,9.80
2022-12-23T10:43:47.502Z,9.81
2022-12-23T10:46:23.762Z,9.89
2022-12-23T10:48:57.408Z,9.95
2022-12-23T10:51:30.115Z,9.91
2022-12-23T10:54:01.184Z,9.89
2022-12-23T10:56:30.803Z,9.82
2022-12-23T10:59:00.717Z,9.80
2022-12-23T11:01:31.967Z,9.84
2022-12-23T11:04:05.878Z,9.82
2022-12-23T11:06:37.504Z,9.73
2022-12-23T11:09:08.210Z,9.81
2022-12-23T11:11:55.864Z,9.77
2022-12-23T11:14:35.043Z,9.80
2022-12-23T11:17:05.049Z,9.80
2022-12-23T11:19:32.936Z,9.80
2022-12-23T11:22:01.820Z,9.69
2022-12-23T11:24:35.424Z,9.72
2022-12-23T11:27:08.239Z,9.69
2022-12-23T11:29:37.168Z,9.71
2022-12-23T11:32:16.987Z,9.72
2022-12-23T11:34:47.253Z,9.66
2022-12-23T11:37:27.435Z,9.73
2022-12-23T11:39:55.008Z,9.61
2022-12-23T11:42:27.433Z,9.61
2022-12-23T11:44:57.212Z,9.59
2022-12-23T11:47:31.045Z,9.57
2022-12-23T11:50:00.387Z,9.56
2022-12-23T11:52:28.992Z,9.65
2022-12-23T11:54:58.614Z,9.59
2022-12-23T11:57:34.727Z,9.68
2022-12-23T12:00:05.263Z,9.62
2022-12-23T12:02:37.034Z,9.56
2022-12-23T12:05:08.123Z,9.56
2022-12-23T12:07:36.815Z,9.62
2022-12-23T12:10:05.067Z,9.64
2022-12-23T12:12:33.801Z,9.58
2022-12-23T12:15:01.614Z,9.63
2022-12-23T12:17:37.080Z,9.61
2022-12-23T12:20:07.531Z,9.53
2022-12-23T12:22:40.228Z,9.61
2022-12-23T12:25:17.537Z,9.52
2022-12-23T12:27:48.506Z,9.58
2022-12-23T12:30:19.492Z,9.53
2022-12-23T12:32:54.857Z,9.53
2022-12-23T12:35:26.954Z,9.58
2022-12-23T12:37:59.063Z,9.53
2022-12-23T12:40:31.502Z,9.58
2022-12-23T12:43:01.049Z,9.66
2022-12-23T12:45:34.807Z,9.55
2022-12-23T12:48:18.771Z,9.58
2022-12-23T12:50:55.367Z,9.57
2022-12-23T12:53:23.797Z,9.52
2022-12-23T12:55:55.193Z,9.51
2022-12-23T12:58:24.272Z,9.49
2022-12-23T13:00:59.534Z,9.45
2022-12-23T13:03:44.062Z,9.37
2022-12-23T13:06:19.885Z,9.38
2022-12-23T13:08:58.388Z,9.32
2022-12-23T13:11:31.355Z,9.34
2022-12-23T13:14:05.324Z,9.31
2022-12-23T13:16:42.165Z,9.30
2022-12-23T13:19:21.950Z,9.31
2022-12-23T13:21:52.284Z,9.35
2022-12-23T13:24:23.663Z,9.36
2022-12-23T13:26:59.351Z,9.30
2022-12-23T13:29:59.732Z,9.31
2022-12-23T13:32:38.390Z,9.31
2022-12-23T13:35:18.713Z,9.33
2022-12-23T13:37:53.231Z,9.30
2022-12-23T13:40:30.673Z,9.31
2022-12-23T13:43:00.868Z,9.29
2022-12-23T13:45:33.304Z,9.21
2022-12-23T13:48:15.796Z,9.24
2022-12-23T13:50:52.174Z,9.27
2022-12-23T13:53:24.971Z,9.24
2022-12-23T13:55:58.920Z,9.25
2022-12-23T13:58:28.243Z,9.26
2022-12-23T14:01:00.096Z,9.24
2022-12-23T14:03:34.373Z,9.20
2022-12-23T14:06:21.092Z,9.23
2022-12-23T14:08:48.818Z,9.22
2022-12-23T14:11:20.061Z,9.18
2022-12-23T14:13:55.937Z,9.20
2022-12-23T14:16:38.492Z,9.20
2022-12-23T14:19:27.452Z,9.21
2022-12-23T14:22:05.267Z,9.21
2022-12-23T14:24:55.849Z,9.17
2022-12-23T14:27:33.156Z,9.17
2022-12-23T14:30:10.051Z,9.20
2022-12-23T14:32:46.994Z,9.16
2022-12-23T14:35:25.644Z,9.12
2022-12-23T14:38:24.998Z,9.17
2022-12-23T14:41:01.669Z,9.14
2022-12-23T14:43:34.774Z,9.14
2022-12-23T14:46:04.820Z,9.14
2022-12-23T14:49:38.340Z,9.13
2022-12-23T14:52:35.903Z,9.13
2022-12-23T14:55:40.168Z,9.10
2022-12-23T14:58:13.642Z,9.12
2022-12-23T15:00:47.695Z,9.05
2022-12-23T15:03:17.254Z,9.06
2022-12-23T15:05:45.214Z,9.05
2022-12-23T15:08:23.557Z,9.03
2022-12-23T15:10:52.546Z,8.95
2022-12-23T15:13:20.490Z,8.95
2022-12-23T15:16:00.993Z,8.88
2022-12-23T15:18:29.592Z,8.90
2022-12-23T15:21:02.043Z,8.92
2022-12-23T15:23:29.900Z,8.91
2022-12-23T15:26:01.171Z,8.96
2022-12-23T15:28:36.547Z,8.96
2022-12-23T15:31:05.186Z,8.92
2022-12-23T15:36:30.596Z,8.87
2022-12-23T15:38:59.616Z,8.88
2022-12-23T15:41:29.535Z,8.86
2022-12-23T15:44:01.882Z,8.88
2022-12-23T15:46:30.829Z,8.84
2022-12-23T15:48:58.667Z,8.75
2022-12-23T15:52:05.283Z,8.77
2022-12-23T15:54:24.402Z,8.77
2022-12-23T15:56:54.967Z,8.76
2022-12-23T15:59:26.153Z,8.75
2022-12-23T16:01:54.861Z,8.70
2022-12-23T16:04:25.845Z,8.68
2022-12-23T16:06:54.298Z,8.66
2022-12-23T16:09:32.760Z,8.70
2022-12-23T16:12:04.039Z,8.77
2022-12-23T16:14:38.170Z,8.68
2022-12-23T16:17:23.883Z,8.74
2022-12-23T16:19:52.834Z,8.71
2022-12-23T16:22:28.028Z,8.69
2022-12-23T16:25:02.577Z,8.66
2022-12-23T16:27:45.652Z,8.71
2022-12-23T16:30:17.840Z,8.73
2022-12-23T16:32:51.121Z,8.72
2022-12-23T16:35:30.670Z,8.71
2022-12-23T16:38:00.663Z,8.67
2022-12-23T16:40:28.394Z,8.69
2022-12-23T16:42:58.128Z,8.65
2022-12-23T16:45:25.862Z,8.69
2022-12-23T16:47:55.138Z,8.62
2022-12-23T16:50:22.712Z,8.64
2022-12-23T16:52:50.258Z,8.65
2022-12-23T16:55:19.659Z,8.68
2022-12-23T16:57:47.375Z,8.62
2022-12-23T17:00:19.525Z,8.64
2022-12-23T17:02:48.298Z,8.62
2022-12-23T17:05:17.381Z,8.64
2022-12-23T17:07:45.762Z,8.64
2022-12-23T17:10:14.431Z,8.65
2022-12-23T17:12:42.868Z,8.63
2022-12-23T17:15:17.025Z,8.67
2022-12-23T17:17:46.262Z,8.65
2022-12-23T17:20:13.899Z,8.61
2022-12-23T17:22:41.992Z,8.66
2022-12-23T17:25:12.453Z,8.66
2022-12-23T17:27:40.499Z,8.68
2022-12-23T17:30:15.597Z,8.63
2022-12-23T17:32:43.841Z,8.64
2022-12-23T17:35:16.568Z,8.61
2022-12-23T17:37:44.101Z,8.60
2022-12-23T17:40:12.828Z,8.60
2022-12-23T17:42:40.397Z,8.59
2022-12-23T17:45:21.727Z,8.61
2022-12-23T17:47:49.550Z,8.58
2022-12-23T17:50:18.708Z,8.58
2022-12-23T17:52:46.728Z,8.57
2022-12-23T17:55:18.130Z,8.57
2022-12-23T17:57:46.148Z,8.59
2022-12-23T18:00:20.435Z,8.64
2022-12-23T18:02:52.927Z,8.66
2022-12-23T18:05:24.047Z,8.69
2022-12-23T18:07:52.375Z,8.64
2022-12-23T18:10:21.907Z,8.66
2022-12-23T18:12:51.647Z,8.68
2022-12-23T18:15:21.592Z,8.70
2022-12-23T18:17:49.983Z,8.75
2022-12-23T18:20:19.812Z,8.80
2022-12-23T18:22:50.584Z,8.80
2022-12-23T18:25:20.745Z,8.77
2022-12-23T18:27:49.037Z,8.81
2022-12-23T18:30:17.837Z,8.81
2022-12-23T18:32:45.698Z,8.77
2022-12-23T18:35:28.326Z,8.81
2022-12-23T18:37:58.649Z,8.82
2022-12-23T18:40:32.520Z,8.81
2022-12-23T18:43:00.596Z,8.77
2022-12-23T18:45:31.204Z,8.79
2022-12-23T18:47:59.282Z,8.77
2022-12-23T18:50:27.462Z,8.85
2022-12-23T18:52:55.415Z,8.76
2022-12-23T18:55:24.479Z,8.80
2022-12-23T18:57:52.071Z,8.76
2022-12-23T19:00:21.959Z,8.79
2022-12-23T19:02:50.310Z,8.81
2022-12-23T19:05:20.214Z,8.84
2022-12-23T19:07:48.715Z,8.80
2022-12-23T19:10:18.832Z,8.87
2022-12-23T19:12:47.867Z,8.86
2022-12-23T19:15:15.999Z,8.91
2022-12-23T19:17:43.551Z,8.98
2022-12-23T19:20:13.464Z,9.02
2022-12-23T19:22:41.591Z,9.05
2022-12-23T19:25:10.359Z,9.10
2022-12-23T19:27:40.083Z,9.23
2022-12-23T19:30:13.661Z,9.45
2022-12-23T19:32:41.454Z,9.51
2022-12-23T19:35:10.873Z,9.64
2022-12-23T19:37:38.445Z,9.83
2022-12-23T19:40:07.209Z,9.92
2022-12-23T19:42:34.980Z,9.97
2022-12-23T19:45:02.626Z,9.98
2022-12-23T19:47:31.605Z,10.14
2022-12-23T19:49:59.301Z,10.12
2022-12-23T19:52:26.821Z,10.15
2022-12-23T19:54:54.834Z,10.20
2022-12-23T19:57:22.828Z,10.27
2022-12-23T19:59:50.556Z,10.25
2022-12-23T20:02:20.107Z,10.35
2022-12-23T20:04:49.179Z,10.37
2022-12-23T20:07:16.854Z,10.47
2022-12-23T20:09:44.370Z,10.36
2022-12-23T20:12:12.100Z,10.42
2022-12-23T20:14:39.656Z,10.45
2022-12-23T20:17:07.197Z,10.68
2022-12-23T20:19:39.069Z,10.66
2022-12-23T20:22:12.867Z,10.86
2022-12-23T20:24:40.399Z,10.97
2022-12-23T20:27:11.975Z,10.93
2022-12-23T20:29:40.922Z,10.98
2022-12-23T20:32:08.609Z,11.10
2022-12-23T20:34:39.571Z,11.09
2022-12-23T20:37:08.238Z,10.94
2022-12-23T20:39:37.142Z,11.03
2022-12-23T20:42:05.075Z,11.07
2022-12-23T20:44:35.063Z,10.99
2022-12-23T20:47:04.108Z,10.95
2022-12-23T20:49:31.709Z,10.89
2022-12-23T20:51:59.347Z,10.89
2022-12-23T20:54:32.549Z,10.76
2022-12-23T20:57:02.691Z,10.75
2022-12-23T20:59:30.221Z,10.70
2022-12-23T21:01:59.475Z,10.62
2022-12-23T21:04:27.322Z,10.68
2022-12-23T21:06:55.064Z,10.74
2022-12-23T21:09:22.589Z,10.78
2022-12-23T21:11:50.183Z,10.73
2022-12-23T21:14:19.085Z,10.78
2022-12-23T21:16:46.945Z,10.80
2022-12-23T21:19:17.469Z,10.93
2022-12-23T21:21:45.582Z,10.94
2022-12-23T21:24:13.486Z,10.85
2022-12-23T21:26:41.423Z,10.72
2022-12-23T21:29:10.915Z,10.72
2022-12-23T21:31:42.016Z,10.74
2022-12-23T21:34:14.200Z,10.73
2022-12-23T21:36:42.928Z,10.58
2022-12-23T21:39:15.765Z,10.65
2022-12-23T21:41:44.119Z,10.63
2022-12-23T21:44:13.657Z,10.70
2022-12-23T21:46:42.867Z,10.75
2022-12-23T21:49:10.508Z,10.77
2022-12-23T21:51:40.544Z,10.74
2022-12-23T21:54:09.279Z,10.85
2022-12-23T21:56:37.036Z,10.87
2022-12-23T21:59:06.384Z,10.80
2022-12-23T22:01:34.048Z,10.73
2022-12-23T22:04:03.917Z,10.68
2022-12-23T22:06:33.457Z,10.73
2022-12-23T22:09:01.016Z,10.75
2022-12-23T22:11:30.005Z,10.74
2022-12-23T22:13:58.659Z,10.82
2022-12-23T22:16:27.990Z,10.91
2022-12-23T22:18:56.588Z,10.93
2022-12-23T22:21:26.848Z,10.89
2022-12-23T22:23:55.546Z,10.88
2022-12-23T22:26:26.267Z,10.87
2022-12-23T22:28:54.761Z,10.79
2022-12-23T22:31:25.556Z,10.83
2022-12-23T22:33:53.315Z,10.74
2022-12-23T22:36:21.049Z,10.81
2022-12-23T22:38:54.144Z,10.80
2022-12-23T22:41:22.131Z,10.69
2022-12-23T22:43:49.731Z,10.77
2022-12-23T22:46:18.560Z,10.72
2022-12-23T22:48:46.760Z,10.79
2022-12-23T22:51:15.981Z,10.77
2022-12-23T22:53:43.759Z,10.72
2022-12-23T22:56:14.722Z,10.78
2022-12-23T22:58:42.885Z,10.88
2022-12-23T23:01:18.747Z,10.77
2022-12-23T23:03:46.404Z,10.75
2022-12-23T23:06:13.962Z,10.80
2022-12-23T23:08:42.842Z,10.70
2022-12-23T23:11:12.685Z,10.63
2022-12-23T23:13:40.357Z,10.53
2022-12-23T23:16:08.343Z,10.66
2022-12-23T23:18:35.991Z,10.64
2022-12-23T23:21:03.557Z,10.63
2022-12-23T23:23:31.053Z,10.53
2022-12-23T23:25:58.784Z,10.56
2022-12-23T23:28:27.640Z,10.40
2022-12-23T23:31:10.054Z,10.44
2022-12-23T23:33:42.767Z,10.40
2022-12-23T23:36:10.784Z,10.39
2022-12-23T23:38:38.318Z,10.33
2022-12-23T23:41:06.371Z,10.38
2022-12-23T23:43:35.204Z,10.46
2022-12-23T23:46:03.041Z,10.46
2022-12-23T23:48:30.776Z,10.52
2022-12-23T23:51:04.840Z,10.58
2022-12-23T23:53:32.365Z,10.65
2022-12-23T23:56:04.452Z,10.56
2022-12-23T23:58:32.120Z,10.56
